Pasinler, Turkey
Current Conditions -  °F | °C
As of 10:50 PM on Monday 24 Nov 2014 (Local Time) from LTCE Reporting Station
Scattered Clouds Scattered Clouds  
Wind Chill: 21°   Ceiling: Unl
Heat Index: 27°   Visibility: 6mi
Dew Point: 25°   Wind: 5mph
Humidity: 93%   Direction: 160°SSE
Pressure: 30.03"   Gusts: NA
Location:  39.99°N, 41.69°E
Report Text: LTCE 241950Z 16004KT 9999 SCT030 M03/M04 Q1017 NOSIG
Loading
Personal Weather Stations






























Interactive Weather Map New forecast layout! Learn more

10-Day Weather Forecast

Advertisements
Track Severe Weather on mobile